Aérodrome :
LOGIN :

S'inscrire | Disclaimer

   EN    FR    IT 

 










Légende :    VFR   VFR Marginal   IFR   IFR Intensif   IFR Très Intensif
Visi : 
Plafond : 
>= 8 km
>= 3000ft
5 à 8 km
1000 à 3000 ft
1500m à 5 km
500 à 1000 ft
800 à 1500m
200 à 500 ft
< 800m
< 200 ft
Symboles :   Orages  Brouillard  Fortes neiges  Fortes précipitations  Vent > 20 kt
SIGMETs :   Divers  Orages  Givrage  Turbulence  Onde Orograph.  Cendres Volcan.







- Altitude de l'aérodrome : 3 ft
- Code IATA : LWR


EHLW - Leuuwarden Air Base

DERNIER METAR :
  • 170755Z AUTO 32016KT 280V360 9999 BKN039/// BKN044/// OVC052/// 14/11 Q1018 BLU 29012KT 9999 FEW030 BKN040 BECMG 32016G27KT

METARs EXPIRÉS :
  • 170725Z AUTO 30012KT 260V330 9999 FEW035/// SCT042/// BKN048/// 15/09 Q1018 BLU 29012KT 9999 FEW030 BKN040 BECMG 32016G27KT
  • 170655Z AUTO 29012KT 260V330 9999 BKN058 OVC350 15/09 Q1018 BLU 29012KT 9999 FEW030 BKN040 BECMG 32016G27KT
  • 170642Z AUTO 29011KT 9999 OVC360 15/10 Q1018 BLU 29012KT 9999 FEW030 BKN040 BECMG 32016G27KT
  • 170625Z AUTO 29012KT 9999 FEW041 BKN045 BKN050 14/10 Q1018 BLU 27010KT 9999 FEW030 BKN040 BECMG 31015G25KT
  • 170555Z AUTO 27010KT 240V300 9999 BKN039 BKN046 OVC051 14/10 Q1018 BLU 27010KT 9999 FEW030 BKN040 BECMG 31015G25KT
  • 170525Z AUTO 26008KT 240V300 9999 FEW028 BKN034 OVC042 13/09 Q1018 BLU

TAF COR TAF EHLW
Valide du 17 à 05h jusqu'au 17 à 17h UTC


170424Z 1705/1717 27007KT 9999 FEW030 BKN040
BECMG 1705/1708 32017G32KT
Pas de NOTAMs connus pour ce terrain.



MET'MAP, la Météo Aéronautique d'un coup d'oeil ! - Copyright ORBIFLY Décembre 2007 - Disclaimer

ORBIFLY MET'MAP TEAM :

Programmation & Développement : Alexandra Zaïnal
Conception & Développement : Baudouin d'Aumeries
Co-Programmation & Développement : Marc-Olivier Méhu
Soutien technique & logistique : Manuel Goepfert

Contact : metmap@orbifly.com




SOURCES & CREDITS :

   NOAA